sensor_id;sensor_type;location;lat;lon;timestamp;temperature;humidity
60039;DHT22;45916;52.734;6.544;2023-04-21T00:02:22;8.80;99.90
60039;DHT22;45916;52.734;6.544;2023-04-21T00:04:48;8.80;99.90
60039;DHT22;45916;52.734;6.544;2023-04-21T00:07:14;8.80;99.90
60039;DHT22;45916;52.734;6.544;2023-04-21T00:09:41;8.80;99.90
60039;DHT22;45916;52.734;6.544;2023-04-21T00:12:06;8.80;99.90
60039;DHT22;45916;52.734;6.544;2023-04-21T00:14:32;8.80;99.90
60039;DHT22;45916;52.734;6.544;2023-04-21T00:16:58;8.80;99.90
60039;DHT22;45916;52.734;6.544;2023-04-21T00:19:25;8.70;99.90
60039;DHT22;45916;52.734;6.544;2023-04-21T00:21:51;8.70;99.90
60039;DHT22;45916;52.734;6.544;2023-04-21T00:24:17;8.60;99.90
60039;DHT22;45916;52.734;6.544;2023-04-21T00:26:42;8.50;99.90
60039;DHT22;45916;52.734;6.544;2023-04-21T00:29:08;8.40;99.90
60039;DHT22;45916;52.734;6.544;2023-04-21T00:31:33;8.30;99.90
60039;DHT22;45916;52.734;6.544;2023-04-21T00:33:59;8.20;99.90
60039;DHT22;45916;52.734;6.544;2023-04-21T00:36:25;8.20;99.90
60039;DHT22;45916;52.734;6.544;2023-04-21T00:38:53;8.20;99.90
60039;DHT22;45916;52.734;6.544;2023-04-21T00:41:18;8.10;99.90
60039;DHT22;45916;52.734;6.544;2023-04-21T00:44:07;8.10;99.90
60039;DHT22;45916;52.734;6.544;2023-04-21T00:46:34;8.00;99.90
60039;DHT22;45916;52.734;6.544;2023-04-21T00:49:04;8.00;99.90
60039;DHT22;45916;52.734;6.544;2023-04-21T00:51:32;8.10;99.90
60039;DHT22;45916;52.734;6.544;2023-04-21T00:53:59;8.10;99.90
60039;DHT22;45916;52.734;6.544;2023-04-21T00:56:25;8.20;99.90
60039;DHT22;45916;52.734;6.544;2023-04-21T00:58:53;8.20;99.90
60039;DHT22;45916;52.734;6.544;2023-04-21T01:01:19;8.20;99.90
60039;DHT22;45916;52.734;6.544;2023-04-21T01:03:44;8.20;99.90
60039;DHT22;45916;52.734;6.544;2023-04-21T01:06:13;8.10;99.90
60039;DHT22;45916;52.734;6.544;2023-04-21T01:08:38;8.20;99.90
60039;DHT22;45916;52.734;6.544;2023-04-21T01:11:11;8.20;99.90
60039;DHT22;45916;52.734;6.544;2023-04-21T01:13:38;8.20;99.90
60039;DHT22;45916;52.734;6.544;2023-04-21T01:16:05;8.20;99.90
60039;DHT22;45916;52.734;6.544;2023-04-21T01:18:31;8.20;99.90
60039;DHT22;45916;52.734;6.544;2023-04-21T01:20:58;8.30;99.90
60039;DHT22;45916;52.734;6.544;2023-04-21T01:23:24;8.20;99.90
60039;DHT22;45916;52.734;6.544;2023-04-21T01:25:51;8.20;99.90
60039;DHT22;45916;52.734;6.544;2023-04-21T01:28:21;8.30;99.90
60039;DHT22;45916;52.734;6.544;2023-04-21T01:30:47;8.30;99.90
60039;DHT22;45916;52.734;6.544;2023-04-21T01:33:13;8.30;99.90
60039;DHT22;45916;52.734;6.544;2023-04-21T01:35:39;8.30;99.90
60039;DHT22;45916;52.734;6.544;2023-04-21T01:38:05;8.40;99.90
60039;DHT22;45916;52.734;6.544;2023-04-21T01:40:31;8.30;99.90
60039;DHT22;45916;52.734;6.544;2023-04-21T01:42:56;8.30;99.90
60039;DHT22;45916;52.734;6.544;2023-04-21T01:45:22;8.30;99.90
60039;DHT22;45916;52.734;6.544;2023-04-21T01:47:48;8.30;99.90
60039;DHT22;45916;52.734;6.544;2023-04-21T01:50:14;8.40;99.90
60039;DHT22;45916;52.734;6.544;2023-04-21T01:52:40;8.40;99.90
60039;DHT22;45916;52.734;6.544;2023-04-21T01:55:06;8.50;99.90
60039;DHT22;45916;52.734;6.544;2023-04-21T01:57:32;8.50;99.90
60039;DHT22;45916;52.734;6.544;2023-04-21T01:59:57;8.50;99.90
60039;DHT22;45916;52.734;6.544;2023-04-21T02:02:23;8.50;99.90
60039;DHT22;45916;52.734;6.544;2023-04-21T02:04:49;8.50;99.90
60039;DHT22;45916;52.734;6.544;2023-04-21T02:07:15;8.40;99.90
60039;DHT22;45916;52.734;6.544;2023-04-21T02:09:40;8.40;99.90
60039;DHT22;45916;52.734;6.544;2023-04-21T02:12:07;8.40;99.90
60039;DHT22;45916;52.734;6.544;2023-04-21T02:14:32;8.40;99.90
60039;DHT22;45916;52.734;6.544;2023-04-21T02:16:58;8.40;99.90
60039;DHT22;45916;52.734;6.544;2023-04-21T02:19:24;8.50;99.90
60039;DHT22;45916;52.734;6.544;2023-04-21T02:21:49;8.50;99.90
60039;DHT22;45916;52.734;6.544;2023-04-21T02:24:15;8.40;99.90
60039;DHT22;45916;52.734;6.544;2023-04-21T02:26:41;8.40;99.90
60039;DHT22;45916;52.734;6.544;2023-04-21T02:29:06;8.40;99.90
60039;DHT22;45916;52.734;6.544;2023-04-21T02:31:32;8.40;99.90
60039;DHT22;45916;52.734;6.544;2023-04-21T02:33:58;8.40;99.90
60039;DHT22;45916;52.734;6.544;2023-04-21T02:36:24;8.40;99.90
60039;DHT22;45916;52.734;6.544;2023-04-21T02:38:50;8.40;99.90
60039;DHT22;45916;52.734;6.544;2023-04-21T02:41:16;8.40;99.90
60039;DHT22;45916;52.734;6.544;2023-04-21T02:43:42;8.40;99.90
60039;DHT22;45916;52.734;6.544;2023-04-21T02:46:08;8.40;99.90
60039;DHT22;45916;52.734;6.544;2023-04-21T02:48:34;8.50;99.90
60039;DHT22;45916;52.734;6.544;2023-04-21T02:51:00;8.50;99.90
60039;DHT22;45916;52.734;6.544;2023-04-21T02:53:26;8.60;99.90
60039;DHT22;45916;52.734;6.544;2023-04-21T02:55:51;8.60;99.90
60039;DHT22;45916;52.734;6.544;2023-04-21T02:58:17;8.60;99.90
60039;DHT22;45916;52.734;6.544;2023-04-21T03:00:43;8.70;99.90
60039;DHT22;45916;52.734;6.544;2023-04-21T03:03:09;8.90;99.90
60039;DHT22;45916;52.734;6.544;2023-04-21T03:05:34;9.00;99.90
60039;DHT22;45916;52.734;6.544;2023-04-21T03:08:00;9.00;99.90
60039;DHT22;45916;52.734;6.544;2023-04-21T03:10:26;9.10;99.90
60039;DHT22;45916;52.734;6.544;2023-04-21T03:12:51;9.20;99.90
60039;DHT22;45916;52.734;6.544;2023-04-21T03:15:18;9.20;99.90
60039;DHT22;45916;52.734;6.544;2023-04-21T03:17:43;9.30;99.90
60039;DHT22;45916;52.734;6.544;2023-04-21T03:20:10;9.30;99.90
60039;DHT22;45916;52.734;6.544;2023-04-21T03:22:37;9.30;99.90
60039;DHT22;45916;52.734;6.544;2023-04-21T03:25:03;9.40;99.90
60039;DHT22;45916;52.734;6.544;2023-04-21T03:27:30;9.50;99.90
60039;DHT22;45916;52.734;6.544;2023-04-21T03:29:55;9.50;99.90
60039;DHT22;45916;52.734;6.544;2023-04-21T03:32:21;9.50;99.90
60039;DHT22;45916;52.734;6.544;2023-04-21T03:34:47;9.50;99.90
60039;DHT22;45916;52.734;6.544;2023-04-21T03:37:14;9.50;99.90
60039;DHT22;45916;52.734;6.544;2023-04-21T03:39:40;9.50;99.90
60039;DHT22;45916;52.734;6.544;2023-04-21T03:42:05;9.50;99.90
60039;DHT22;45916;52.734;6.544;2023-04-21T03:44:31;9.40;99.90
60039;DHT22;45916;52.734;6.544;2023-04-21T03:46:57;9.40;99.90
60039;DHT22;45916;52.734;6.544;2023-04-21T03:49:23;9.40;99.90
60039;DHT22;45916;52.734;6.544;2023-04-21T03:51:49;9.40;99.90
60039;DHT22;45916;52.734;6.544;2023-04-21T03:54:14;9.40;99.90
60039;DHT22;45916;52.734;6.544;2023-04-21T03:56:40;9.40;99.90
60039;DHT22;45916;52.734;6.544;2023-04-21T03:59:06;9.40;99.90
60039;DHT22;45916;52.734;6.544;2023-04-21T04:01:33;9.40;99.90
60039;DHT22;45916;52.734;6.544;2023-04-21T04:03:59;9.40;99.90
60039;DHT22;45916;52.734;6.544;2023-04-21T04:06:24;9.40;99.90
60039;DHT22;45916;52.734;6.544;2023-04-21T04:08:51;9.40;99.90
60039;DHT22;45916;52.734;6.544;2023-04-21T04:11:16;9.40;99.90
60039;DHT22;45916;52.734;6.544;2023-04-21T04:13:42;9.40;99.90
60039;DHT22;45916;52.734;6.544;2023-04-21T04:16:07;9.30;99.90
60039;DHT22;45916;52.734;6.544;2023-04-21T04:18:33;9.30;99.90
60039;DHT22;45916;52.734;6.544;2023-04-21T04:21:06;9.30;99.90
60039;DHT22;45916;52.734;6.544;2023-04-21T04:23:33;9.20;99.90
60039;DHT22;45916;52.734;6.544;2023-04-21T04:25:59;9.20;99.90
60039;DHT22;45916;52.734;6.544;2023-04-21T04:28:26;9.20;99.90
60039;DHT22;45916;52.734;6.544;2023-04-21T04:30:52;9.20;99.90
60039;DHT22;45916;52.734;6.544;2023-04-21T04:33:17;9.20;99.90
60039;DHT22;45916;52.734;6.544;2023-04-21T04:35:43;9.20;99.90
60039;DHT22;45916;52.734;6.544;2023-04-21T04:38:09;9.20;99.90
60039;DHT22;45916;52.734;6.544;2023-04-21T04:40:34;9.10;99.90
60039;DHT22;45916;52.734;6.544;2023-04-21T04:43:00;9.00;99.90
60039;DHT22;45916;52.734;6.544;2023-04-21T04:45:27;9.00;99.90
60039;DHT22;45916;52.734;6.544;2023-04-21T04:47:54;9.00;99.90
60039;DHT22;45916;52.734;6.544;2023-04-21T04:50:20;9.00;99.90
60039;DHT22;45916;52.734;6.544;2023-04-21T04:52:45;9.00;99.90
60039;DHT22;45916;52.734;6.544;2023-04-21T04:55:12;9.00;99.90
60039;DHT22;45916;52.734;6.544;2023-04-21T04:57:38;9.00;99.90
60039;DHT22;45916;52.734;6.544;2023-04-21T05:00:06;9.20;99.90
60039;DHT22;45916;52.734;6.544;2023-04-21T05:02:35;9.30;99.90
60039;DHT22;45916;52.734;6.544;2023-04-21T05:05:01;9.50;99.90
60039;DHT22;45916;52.734;6.544;2023-04-21T05:07:27;9.60;99.90
60039;DHT22;45916;52.734;6.544;2023-04-21T05:09:52;9.80;99.90
60039;DHT22;45916;52.734;6.544;2023-04-21T05:12:18;9.90;99.90
60039;DHT22;45916;52.734;6.544;2023-04-21T05:14:44;9.90;99.90
60039;DHT22;45916;52.734;6.544;2023-04-21T05:17:10;10.10;99.90
60039;DHT22;45916;52.734;6.544;2023-04-21T05:19:35;10.30;99.90
60039;DHT22;45916;52.734;6.544;2023-04-21T05:22:04;10.60;99.90
60039;DHT22;45916;52.734;6.544;2023-04-21T05:24:32;10.70;99.90
60039;DHT22;45916;52.734;6.544;2023-04-21T05:26:58;10.80;99.90
60039;DHT22;45916;52.734;6.544;2023-04-21T05:29:23;10.90;99.90
60039;DHT22;45916;52.734;6.544;2023-04-21T05:31:50;10.90;99.90
60039;DHT22;45916;52.734;6.544;2023-04-21T05:34:15;11.10;99.90
60039;DHT22;45916;52.734;6.544;2023-04-21T05:36:41;11.10;99.90
60039;DHT22;45916;52.734;6.544;2023-04-21T05:39:07;11.30;99.90
60039;DHT22;45916;52.734;6.544;2023-04-21T05:41:33;11.70;99.90
60039;DHT22;45916;52.734;6.544;2023-04-21T05:43:59;12.00;99.90
60039;DHT22;45916;52.734;6.544;2023-04-21T05:46:25;12.40;99.90
60039;DHT22;45916;52.734;6.544;2023-04-21T05:48:50;12.50;99.90
60039;DHT22;45916;52.734;6.544;2023-04-21T05:51:16;12.40;99.90
60039;DHT22;45916;52.734;6.544;2023-04-21T05:53:43;12.40;99.90
60039;DHT22;45916;52.734;6.544;2023-04-21T05:56:09;12.90;99.90
60039;DHT22;45916;52.734;6.544;2023-04-21T05:58:36;13.20;99.90
60039;DHT22;45916;52.734;6.544;2023-04-21T06:01:02;13.30;99.90
60039;DHT22;45916;52.734;6.544;2023-04-21T06:03:30;13.40;99.90
60039;DHT22;45916;52.734;6.544;2023-04-21T06:05:58;13.50;99.90
60039;DHT22;45916;52.734;6.544;2023-04-21T06:08:24;13.30;99.90
60039;DHT22;45916;52.734;6.544;2023-04-21T06:10:49;13.00;99.90
60039;DHT22;45916;52.734;6.544;2023-04-21T06:13:15;12.80;99.90
60039;DHT22;45916;52.734;6.544;2023-04-21T06:15:41;12.70;99.90
60039;DHT22;45916;52.734;6.544;2023-04-21T06:18:06;12.70;99.90
60039;DHT22;45916;52.734;6.544;2023-04-21T06:20:32;12.60;99.90
60039;DHT22;45916;52.734;6.544;2023-04-21T06:22:58;12.50;99.90
60039;DHT22;45916;52.734;6.544;2023-04-21T06:25:23;12.30;99.90
60039;DHT22;45916;52.734;6.544;2023-04-21T06:27:49;12.10;99.90
60039;DHT22;45916;52.734;6.544;2023-04-21T06:30:15;12.00;99.90
60039;DHT22;45916;52.734;6.544;2023-04-21T06:32:42;11.90;99.90
60039;DHT22;45916;52.734;6.544;2023-04-21T06:35:08;11.80;99.90
60039;DHT22;45916;52.734;6.544;2023-04-21T06:37:33;11.80;99.90
60039;DHT22;45916;52.734;6.544;2023-04-21T06:39:59;11.80;99.90
60039;DHT22;45916;52.734;6.544;2023-04-21T06:42:25;11.60;99.90
60039;DHT22;45916;52.734;6.544;2023-04-21T06:44:50;11.50;99.90
60039;DHT22;45916;52.734;6.544;2023-04-21T06:47:16;11.50;99.90
60039;DHT22;45916;52.734;6.544;2023-04-21T06:49:42;11.40;99.90
60039;DHT22;45916;52.734;6.544;2023-04-21T06:52:07;11.30;99.90
60039;DHT22;45916;52.734;6.544;2023-04-21T06:54:33;11.30;99.90
60039;DHT22;45916;52.734;6.544;2023-04-21T06:56:59;11.30;99.90
60039;DHT22;45916;52.734;6.544;2023-04-21T06:59:24;11.30;99.90
60039;DHT22;45916;52.734;6.544;2023-04-21T07:01:50;11.40;99.90
60039;DHT22;45916;52.734;6.544;2023-04-21T07:04:19;11.40;99.90
60039;DHT22;45916;52.734;6.544;2023-04-21T07:06:45;11.30;99.90
60039;DHT22;45916;52.734;6.544;2023-04-21T07:09:11;11.30;99.90
60039;DHT22;45916;52.734;6.544;2023-04-21T07:11:37;11.30;99.90
60039;DHT22;45916;52.734;6.544;2023-04-21T07:14:03;11.30;99.90
60039;DHT22;45916;52.734;6.544;2023-04-21T07:16:29;11.30;99.90
60039;DHT22;45916;52.734;6.544;2023-04-21T07:18:55;11.30;99.90
60039;DHT22;45916;52.734;6.544;2023-04-21T07:21:20;11.30;99.90
60039;DHT22;45916;52.734;6.544;2023-04-21T07:23:46;11.40;99.90
60039;DHT22;45916;52.734;6.544;2023-04-21T07:26:12;11.40;99.90
60039;DHT22;45916;52.734;6.544;2023-04-21T07:28:38;11.50;99.90
60039;DHT22;45916;52.734;6.544;2023-04-21T07:31:05;11.60;99.90
60039;DHT22;45916;52.734;6.544;2023-04-21T07:33:31;11.70;99.90
60039;DHT22;45916;52.734;6.544;2023-04-21T07:35:57;11.80;99.90
60039;DHT22;45916;52.734;6.544;2023-04-21T07:38:23;12.00;99.90
60039;DHT22;45916;52.734;6.544;2023-04-21T07:40:48;12.10;99.90
60039;DHT22;45916;52.734;6.544;2023-04-21T07:43:14;12.40;99.90
60039;DHT22;45916;52.734;6.544;2023-04-21T07:45:39;12.60;99.90
60039;DHT22;45916;52.734;6.544;2023-04-21T07:48:05;12.70;99.90
60039;DHT22;45916;52.734;6.544;2023-04-21T07:50:32;12.80;99.90
60039;DHT22;45916;52.734;6.544;2023-04-21T07:53:00;12.80;99.90
60039;DHT22;45916;52.734;6.544;2023-04-21T07:55:27;12.80;99.90
60039;DHT22;45916;52.734;6.544;2023-04-21T07:57:52;12.80;99.90
60039;DHT22;45916;52.734;6.544;2023-04-21T08:00:19;12.80;99.90
60039;DHT22;45916;52.734;6.544;2023-04-21T08:02:45;12.90;99.90
60039;DHT22;45916;52.734;6.544;2023-04-21T08:05:11;12.90;99.90
60039;DHT22;45916;52.734;6.544;2023-04-21T08:07:36;13.10;99.90
60039;DHT22;45916;52.734;6.544;2023-04-21T08:10:02;13.30;99.90
60039;DHT22;45916;52.734;6.544;2023-04-21T08:12:28;13.40;99.90
60039;DHT22;45916;52.734;6.544;2023-04-21T08:14:54;13.60;99.90
60039;DHT22;45916;52.734;6.544;2023-04-21T08:17:19;13.90;99.90
60039;DHT22;45916;52.734;6.544;2023-04-21T08:19:45;14.20;99.90
60039;DHT22;45916;52.734;6.544;2023-04-21T08:22:11;14.30;99.90
60039;DHT22;45916;52.734;6.544;2023-04-21T08:24:37;14.30;99.90
60039;DHT22;45916;52.734;6.544;2023-04-21T08:27:02;14.40;99.90
60039;DHT22;45916;52.734;6.544;2023-04-21T08:29:28;14.50;99.90
60039;DHT22;45916;52.734;6.544;2023-04-21T08:31:54;14.70;99.90
60039;DHT22;45916;52.734;6.544;2023-04-21T08:34:19;14.90;99.90
60039;DHT22;45916;52.734;6.544;2023-04-21T08:36:45;14.90;99.90
60039;DHT22;45916;52.734;6.544;2023-04-21T08:39:13;14.90;99.90
60039;DHT22;45916;52.734;6.544;2023-04-21T08:41:38;15.00;99.90
60039;DHT22;45916;52.734;6.544;2023-04-21T08:44:06;14.90;99.90
60039;DHT22;45916;52.734;6.544;2023-04-21T08:46:32;14.90;99.90
60039;DHT22;45916;52.734;6.544;2023-04-21T08:48:58;15.00;99.90
60039;DHT22;45916;52.734;6.544;2023-04-21T08:51:26;15.20;99.90
60039;DHT22;45916;52.734;6.544;2023-04-21T08:53:56;15.60;99.90
60039;DHT22;45916;52.734;6.544;2023-04-21T08:56:24;16.10;99.90
60039;DHT22;45916;52.734;6.544;2023-04-21T08:58:50;16.60;99.90
60039;DHT22;45916;52.734;6.544;2023-04-21T09:01:16;17.60;99.90
60039;DHT22;45916;52.734;6.544;2023-04-21T09:03:42;18.20;96.40
60039;DHT22;45916;52.734;6.544;2023-04-21T09:06:09;18.30;93.70
60039;DHT22;45916;52.734;6.544;2023-04-21T09:08:37;18.10;83.70
60039;DHT22;45916;52.734;6.544;2023-04-21T09:11:04;18.10;87.20
60039;DHT22;45916;52.734;6.544;2023-04-21T09:13:35;18.00;87.10
60039;DHT22;45916;52.734;6.544;2023-04-21T09:16:04;19.00;87.50
60039;DHT22;45916;52.734;6.544;2023-04-21T09:18:31;20.30;76.30
60039;DHT22;45916;52.734;6.544;2023-04-21T09:21:09;20.50;67.70
60039;DHT22;45916;52.734;6.544;2023-04-21T09:23:50;19.90;67.80
60039;DHT22;45916;52.734;6.544;2023-04-21T09:26:17;19.80;69.30
60039;DHT22;45916;52.734;6.544;2023-04-21T09:28:44;20.30;71.00
60039;DHT22;45916;52.734;6.544;2023-04-21T09:31:23;21.10;67.00
60039;DHT22;45916;52.734;6.544;2023-04-21T09:33:52;20.80;63.70
60039;DHT22;45916;52.734;6.544;2023-04-21T09:36:24;20.10;65.40
60039;DHT22;45916;52.734;6.544;2023-04-21T09:41:19;18.10;71.30
60039;DHT22;45916;52.734;6.544;2023-04-21T09:43:46;17.00;81.00
60039;DHT22;45916;52.734;6.544;2023-04-21T09:46:16;16.80;86.50
60039;DHT22;45916;52.734;6.544;2023-04-21T09:48:44;16.90;88.10
60039;DHT22;45916;52.734;6.544;2023-04-21T09:51:15;18.60;78.20
60039;DHT22;45916;52.734;6.544;2023-04-21T09:53:41;20.60;70.60
60039;DHT22;45916;52.734;6.544;2023-04-21T09:56:13;21.50;63.50
60039;DHT22;45916;52.734;6.544;2023-04-21T09:58:46;21.60;60.90
60039;DHT22;45916;52.734;6.544;2023-04-21T10:01:14;21.00;62.30
60039;DHT22;45916;52.734;6.544;2023-04-21T10:03:42;20.80;64.00
60039;DHT22;45916;52.734;6.544;2023-04-21T10:06:09;20.30;63.70
60039;DHT22;45916;52.734;6.544;2023-04-21T10:08:35;19.40;64.40
60039;DHT22;45916;52.734;6.544;2023-04-21T10:11:02;18.40;69.50
60039;DHT22;45916;52.734;6.544;2023-04-21T10:13:29;17.90;72.70
60039;DHT22;45916;52.734;6.544;2023-04-21T10:16:08;17.60;75.10
60039;DHT22;45916;52.734;6.544;2023-04-21T10:18:41;17.50;79.50
60039;DHT22;45916;52.734;6.544;2023-04-21T10:21:13;17.40;78.70
60039;DHT22;45916;52.734;6.544;2023-04-21T10:23:44;17.40;82.60
60039;DHT22;45916;52.734;6.544;2023-04-21T10:26:13;17.20;79.80
60039;DHT22;45916;52.734;6.544;2023-04-21T10:31:24;17.30;82.20
60039;DHT22;45916;52.734;6.544;2023-04-21T10:39:29;17.40;79.10
60039;DHT22;45916;52.734;6.544;2023-04-21T10:42:23;17.30;84.50
60039;DHT22;45916;52.734;6.544;2023-04-21T10:47:45;17.20;80.10
60039;DHT22;45916;52.734;6.544;2023-04-21T10:53:29;16.80;83.10
60039;DHT22;45916;52.734;6.544;2023-04-21T10:55:30;16.60;82.80
60039;DHT22;45916;52.734;6.544;2023-04-21T10:58:00;16.50;84.30
60039;DHT22;45916;52.734;6.544;2023-04-21T11:00:26;16.50;86.70
60039;DHT22;45916;52.734;6.544;2023-04-21T11:02:59;16.60;87.80
60039;DHT22;45916;52.734;6.544;2023-04-21T11:10:47;17.40;81.70
60039;DHT22;45916;52.734;6.544;2023-04-21T11:13:13;17.70;86.80
60039;DHT22;45916;52.734;6.544;2023-04-21T11:15:40;17.90;81.80
60039;DHT22;45916;52.734;6.544;2023-04-21T11:18:05;17.90;78.70
60039;DHT22;45916;52.734;6.544;2023-04-21T11:20:39;18.00;79.70
60039;DHT22;45916;52.734;6.544;2023-04-21T11:23:05;18.00;76.90
60039;DHT22;45916;52.734;6.544;2023-04-21T11:25:31;17.90;77.30
60039;DHT22;45916;52.734;6.544;2023-04-21T11:27:57;18.00;78.40
60039;DHT22;45916;52.734;6.544;2023-04-21T11:30:31;18.00;76.20
60039;DHT22;45916;52.734;6.544;2023-04-21T11:32:58;17.90;77.30
60039;DHT22;45916;52.734;6.544;2023-04-21T11:35:24;17.90;75.00
60039;DHT22;45916;52.734;6.544;2023-04-21T11:37:50;17.70;75.40
60039;DHT22;45916;52.734;6.544;2023-04-21T11:40:17;17.80;75.50
60039;DHT22;45916;52.734;6.544;2023-04-21T11:42:43;17.90;72.20
60039;DHT22;45916;52.734;6.544;2023-04-21T11:45:18;18.10;76.30
60039;DHT22;45916;52.734;6.544;2023-04-21T11:47:44;18.20;74.80
60039;DHT22;45916;52.734;6.544;2023-04-21T11:50:10;18.10;72.60
60039;DHT22;45916;52.734;6.544;2023-04-21T11:52:36;18.00;71.60
60039;DHT22;45916;52.734;6.544;2023-04-21T11:55:05;18.00;70.50
60039;DHT22;45916;52.734;6.544;2023-04-21T11:57:32;17.90;72.70
60039;DHT22;45916;52.734;6.544;2023-04-21T11:59:59;18.00;74.30
60039;DHT22;45916;52.734;6.544;2023-04-21T12:02:30;18.10;73.50
60039;DHT22;45916;52.734;6.544;2023-04-21T12:05:16;18.20;72.30
60039;DHT22;45916;52.734;6.544;2023-04-21T12:07:43;18.30;71.30
60039;DHT22;45916;52.734;6.544;2023-04-21T12:10:20;18.30;70.70
60039;DHT22;45916;52.734;6.544;2023-04-21T12:12:46;18.50;73.10
60039;DHT22;45916;52.734;6.544;2023-04-21T12:15:17;18.40;73.20
60039;DHT22;45916;52.734;6.544;2023-04-21T12:17:49;18.40;73.80
60039;DHT22;45916;52.734;6.544;2023-04-21T12:20:16;18.20;74.60
60039;DHT22;45916;52.734;6.544;2023-04-21T12:22:42;18.00;72.70
60039;DHT22;45916;52.734;6.544;2023-04-21T12:25:08;18.00;73.80
60039;DHT22;45916;52.734;6.544;2023-04-21T12:27:34;17.90;72.70
60039;DHT22;45916;52.734;6.544;2023-04-21T12:30:00;17.90;71.50
60039;DHT22;45916;52.734;6.544;2023-04-21T12:32:26;18.00;71.50
60039;DHT22;45916;52.734;6.544;2023-04-21T12:34:51;18.10;72.00
60039;DHT22;45916;52.734;6.544;2023-04-21T12:37:18;18.20;71.50
60039;DHT22;45916;52.734;6.544;2023-04-21T12:39:43;18.30;68.80
60039;DHT22;45916;52.734;6.544;2023-04-21T12:42:09;18.40;70.60
60039;DHT22;45916;52.734;6.544;2023-04-21T12:44:35;18.70;70.60
60039;DHT22;45916;52.734;6.544;2023-04-21T12:47:01;18.90;71.40
60039;DHT22;45916;52.734;6.544;2023-04-21T12:49:26;19.20;68.30
60039;DHT22;45916;52.734;6.544;2023-04-21T12:51:52;19.20;64.80
60039;DHT22;45916;52.734;6.544;2023-04-21T12:54:18;18.90;66.10
60039;DHT22;45916;52.734;6.544;2023-04-21T12:56:43;18.80;66.30
60039;DHT22;45916;52.734;6.544;2023-04-21T12:59:10;18.80;67.50
60039;DHT22;45916;52.734;6.544;2023-04-21T13:01:37;18.80;67.10
60039;DHT22;45916;52.734;6.544;2023-04-21T13:04:03;18.70;65.00
60039;DHT22;45916;52.734;6.544;2023-04-21T13:06:29;18.80;66.10
60039;DHT22;45916;52.734;6.544;2023-04-21T13:08:55;18.90;66.70
60039;DHT22;45916;52.734;6.544;2023-04-21T13:11:21;19.00;65.80
60039;DHT22;45916;52.734;6.544;2023-04-21T13:13:47;19.00;67.30
60039;DHT22;45916;52.734;6.544;2023-04-21T13:16:13;19.00;67.60
60039;DHT22;45916;52.734;6.544;2023-04-21T13:18:38;19.10;67.00
60039;DHT22;45916;52.734;6.544;2023-04-21T13:21:04;19.20;67.00
60039;DHT22;45916;52.734;6.544;2023-04-21T13:23:31;19.30;64.70
60039;DHT22;45916;52.734;6.544;2023-04-21T13:25:58;19.40;67.10
60039;DHT22;45916;52.734;6.544;2023-04-21T13:28:24;19.50;64.00
60039;DHT22;45916;52.734;6.544;2023-04-21T13:30:51;19.40;64.00
60039;DHT22;45916;52.734;6.544;2023-04-21T13:33:18;19.30;64.10
60039;DHT22;45916;52.734;6.544;2023-04-21T13:35:44;19.10;64.20
60039;DHT22;45916;52.734;6.544;2023-04-21T13:38:10;19.10;63.40
60039;DHT22;45916;52.734;6.544;2023-04-21T13:40:36;19.00;63.70
60039;DHT22;45916;52.734;6.544;2023-04-21T13:43:02;19.00;63.40
60039;DHT22;45916;52.734;6.544;2023-04-21T13:45:27;19.00;62.50
60039;DHT22;45916;52.734;6.544;2023-04-21T13:47:53;18.90;61.90
60039;DHT22;45916;52.734;6.544;2023-04-21T13:50:19;18.80;61.60
60039;DHT22;45916;52.734;6.544;2023-04-21T13:52:45;18.80;63.20
60039;DHT22;45916;52.734;6.544;2023-04-21T13:55:11;18.80;64.00
60039;DHT22;45916;52.734;6.544;2023-04-21T13:57:37;18.80;62.50
60039;DHT22;45916;52.734;6.544;2023-04-21T14:00:04;19.00;61.80
60039;DHT22;45916;52.734;6.544;2023-04-21T14:02:37;19.20;61.40
60039;DHT22;45916;52.734;6.544;2023-04-21T14:05:03;19.50;59.30
60039;DHT22;45916;52.734;6.544;2023-04-21T14:07:30;19.60;57.20
60039;DHT22;45916;52.734;6.544;2023-04-21T14:09:55;19.50;58.70
60039;DHT22;45916;52.734;6.544;2023-04-21T14:12:22;19.60;58.70
60039;DHT22;45916;52.734;6.544;2023-04-21T14:14:50;19.80;57.40
60039;DHT22;45916;52.734;6.544;2023-04-21T14:17:16;19.90;56.50
60039;DHT22;45916;52.734;6.544;2023-04-21T14:19:42;20.00;56.40
60039;DHT22;45916;52.734;6.544;2023-04-21T14:22:08;20.00;55.10
60039;DHT22;45916;52.734;6.544;2023-04-21T14:24:34;19.90;54.50
60039;DHT22;45916;52.734;6.544;2023-04-21T14:26:59;19.70;54.20
60039;DHT22;45916;52.734;6.544;2023-04-21T14:29:25;19.70;55.30
60039;DHT22;45916;52.734;6.544;2023-04-21T14:31:51;19.60;55.00
60039;DHT22;45916;52.734;6.544;2023-04-21T14:34:18;19.50;55.00
60039;DHT22;45916;52.734;6.544;2023-04-21T14:36:44;19.60;54.40
60039;DHT22;45916;52.734;6.544;2023-04-21T14:39:14;19.50;54.20
60039;DHT22;45916;52.734;6.544;2023-04-21T14:41:40;19.40;55.10
60039;DHT22;45916;52.734;6.544;2023-04-21T14:44:05;19.40;55.40
60039;DHT22;45916;52.734;6.544;2023-04-21T14:46:31;19.30;58.60
60039;DHT22;45916;52.734;6.544;2023-04-21T14:48:57;19.30;55.90
60039;DHT22;45916;52.734;6.544;2023-04-21T14:51:23;19.30;56.00
60039;DHT22;45916;52.734;6.544;2023-04-21T14:53:48;19.30;56.90
60039;DHT22;45916;52.734;6.544;2023-04-21T14:56:14;19.30;55.40
60039;DHT22;45916;52.734;6.544;2023-04-21T14:58:40;19.30;54.10
60039;DHT22;45916;52.734;6.544;2023-04-21T15:01:06;19.30;54.90
60039;DHT22;45916;52.734;6.544;2023-04-21T15:03:32;19.30;55.70
60039;DHT22;45916;52.734;6.544;2023-04-21T15:05:57;19.30;54.80
60039;DHT22;45916;52.734;6.544;2023-04-21T15:08:23;19.30;56.60
60039;DHT22;45916;52.734;6.544;2023-04-21T15:10:49;19.20;56.40
60039;DHT22;45916;52.734;6.544;2023-04-21T15:13:15;19.20;55.00
60039;DHT22;45916;52.734;6.544;2023-04-21T15:15:41;19.20;54.40
60039;DHT22;45916;52.734;6.544;2023-04-21T15:18:07;19.20;53.40
60039;DHT22;45916;52.734;6.544;2023-04-21T15:20:33;19.20;54.40
60039;DHT22;45916;52.734;6.544;2023-04-21T15:22:58;19.20;54.30
60039;DHT22;45916;52.734;6.544;2023-04-21T15:25:24;19.20;54.10
60039;DHT22;45916;52.734;6.544;2023-04-21T15:27:50;19.20;54.70
60039;DHT22;45916;52.734;6.544;2023-04-21T15:30:15;19.20;55.20
60039;DHT22;45916;52.734;6.544;2023-04-21T15:32:41;19.10;54.70
60039;DHT22;45916;52.734;6.544;2023-04-21T15:35:07;19.10;55.70
60039;DHT22;45916;52.734;6.544;2023-04-21T15:37:33;19.00;55.10
60039;DHT22;45916;52.734;6.544;2023-04-21T15:39:58;18.90;55.20
60039;DHT22;45916;52.734;6.544;2023-04-21T15:42:24;18.90;54.90
60039;DHT22;45916;52.734;6.544;2023-04-21T15:44:51;18.70;57.00
60039;DHT22;45916;52.734;6.544;2023-04-21T15:47:18;18.60;57.80
60039;DHT22;45916;52.734;6.544;2023-04-21T15:49:44;18.50;56.50
60039;DHT22;45916;52.734;6.544;2023-04-21T15:52:10;18.40;56.30
60039;DHT22;45916;52.734;6.544;2023-04-21T15:54:36;18.50;56.90